Time;durP1;ratioP1;P1;durP2;ratioP2;P2;SDS_P1;SDS_P2;PMS_P1;PMS_P2;Temp;Humidity;BMP_temperature;BMP_pressure;BME280_temperature;BME280_humidity;BME280_pressure;Samples;Min_cycle;Max_cycle;Signal;HPM_P1;HPM_P2
2023/06/21 00:02:23;;;;;;;8.18;5.18;;;;;;;;;;4997022;28;20026;-81
2023/06/21 00:04:51;;;;;;;7.32;5.95;;;;;;;;;;4995845;28;20038;-81
2023/06/21 00:07:23;;;;;;;8.13;5.72;;;;;;;;;;5006421;28;20073;-80
2023/06/21 00:09:49;;;;;;;8.55;5.47;;;;;;;;;;5008232;28;20038;-81
2023/06/21 00:12:15;;;;;;;8.48;6.03;;;;;;;;;;5002056;28;20037;-82
2023/06/21 00:14:41;;;;;;;13.40;5.55;;;;;;;;;;4996138;28;20120;-81
2023/06/21 00:17:07;;;;;;;7.65;6.18;;;;;;;;;;4999159;28;20054;-81
2023/06/21 00:19:33;;;;;;;9.60;6.00;;;;;;;;;;5007258;28;20034;-81
2023/06/21 00:22:00;;;;;;;21.38;7.10;;;;;;;;;;5007890;28;20573;-81
2023/06/21 00:24:26;;;;;;;17.30;7.18;;;;;;;;;;4999209;28;20042;-81
2023/06/21 00:26:53;;;;;;;11.95;6.85;;;;;;;;;;4998187;28;20119;-81
2023/06/21 00:29:19;;;;;;;13.13;7.10;;;;;;;;;;5000511;28;20031;-82
2023/06/21 00:31:45;;;;;;;12.18;7.05;;;;;;;;;;4999097;28;20182;-81
2023/06/21 00:34:11;;;;;;;13.48;6.45;;;;;;;;;;4982020;28;20485;-82
2023/06/21 00:36:41;;;;;;;13.27;9.85;;;;;;;;;;4995581;28;20527;-80
2023/06/21 00:39:09;;;;;;;30.05;16.90;;;;;;;;;;4995485;28;20065;-80
2023/06/21 00:41:37;;;;;;;41.40;24.47;;;;;;;;;;4980415;28;20034;-82
2023/06/21 00:44:04;;;;;;;31.20;19.83;;;;;;;;;;4980547;28;20425;-82
2023/06/21 00:46:30;;;;;;;20.77;14.35;;;;;;;;;;4995692;28;20052;-80
2023/06/21 00:48:58;;;;;;;13.75;8.80;;;;;;;;;;4994707;28;20034;-80
2023/06/21 00:51:25;;;;;;;11.13;8.07;;;;;;;;;;4994379;28;20050;-82
2023/06/21 00:53:50;;;;;;;22.63;10.70;;;;;;;;;;4994532;28;20114;-82
2023/06/21 00:56:16;;;;;;;13.02;8.68;;;;;;;;;;4995644;28;20089;-80
2023/06/21 00:58:43;;;;;;;10.90;9.23;;;;;;;;;;4995938;28;20062;-81
2023/06/21 01:01:09;;;;;;;19.88;10.13;;;;;;;;;;4983977;28;20030;-82
2023/06/21 01:03:36;;;;;;;16.88;9.23;;;;;;;;;;5000642;28;20042;-82
2023/06/21 01:06:21;;;;;;;19.67;10.98;;;;;;;;;;4999156;28;20034;-81
2023/06/21 01:08:51;;;;;;;13.52;9.50;;;;;;;;;;4998506;28;20100;-82
2023/06/21 01:11:20;;;;;;;14.98;10.40;;;;;;;;;;4998500;28;20030;-80
2023/06/21 01:13:51;;;;;;;16.80;9.57;;;;;;;;;;4999674;28;20129;-81
2023/06/21 01:16:17;;;;;;;16.70;9.45;;;;;;;;;;4999352;28;20058;-82
2023/06/21 01:18:46;;;;;;;16.42;9.27;;;;;;;;;;5001438;28;20077;-79
2023/06/21 01:21:17;;;;;;;18.05;11.02;;;;;;;;;;5003731;28;20065;-81
2023/06/21 01:24:02;;;;;;;14.15;8.50;;;;;;;;;;5003968;28;20038;-81
2023/06/21 01:26:47;;;;;;;15.43;8.80;;;;;;;;;;5005007;28;20035;-82
2023/06/21 01:29:14;;;;;;;10.50;7.90;;;;;;;;;;5006910;28;20030;-83
2023/06/21 01:31:42;;;;;;;15.18;8.90;;;;;;;;;;5007871;28;20045;-81
2023/06/21 01:34:08;;;;;;;17.25;10.25;;;;;;;;;;5009293;28;20037;-82
2023/06/21 01:36:34;;;;;;;20.30;9.27;;;;;;;;;;5009993;28;20541;-83
2023/06/21 01:39:00;;;;;;;16.02;10.35;;;;;;;;;;5009472;28;20053;-82
2023/06/21 01:41:26;;;;;;;19.90;9.18;;;;;;;;;;5007963;28;20060;-82
2023/06/21 01:43:52;;;;;;;13.50;7.88;;;;;;;;;;5007389;28;20102;-81
2023/06/21 01:46:19;;;;;;;21.75;6.80;;;;;;;;;;5008051;28;20123;-81
2023/06/21 01:48:46;;;;;;;23.83;7.60;;;;;;;;;;4992413;28;20045;-82
2023/06/21 01:51:12;;;;;;;19.92;7.57;;;;;;;;;;5004510;28;20065;-84
2023/06/21 01:53:38;;;;;;;15.35;7.25;;;;;;;;;;4991650;28;20122;-82
2023/06/21 01:56:08;;;;;;;18.77;6.70;;;;;;;;;;4993073;28;20042;-82
2023/06/21 01:58:34;;;;;;;16.90;8.43;;;;;;;;;;4992995;28;20057;-82
2023/06/21 02:01:02;;;;;;;18.80;9.45;;;;;;;;;;5000176;28;20022;-83
2023/06/21 02:03:30;;;;;;;25.63;9.90;;;;;;;;;;5012447;28;20046;-82
2023/06/21 02:05:59;;;;;;;18.90;9.35;;;;;;;;;;4992891;28;20037;-82
2023/06/21 02:08:26;;;;;;;15.40;9.20;;;;;;;;;;5007650;28;20034;-82
2023/06/21 02:10:52;;;;;;;16.27;8.82;;;;;;;;;;5006077;28;20505;-83
2023/06/21 02:13:18;;;;;;;27.77;8.68;;;;;;;;;;5005317;28;20065;-81
2023/06/21 02:15:46;;;;;;;24.65;9.07;;;;;;;;;;5003082;28;20050;-82
2023/06/21 02:18:13;;;;;;;18.90;9.27;;;;;;;;;;4988834;28;20103;-81
2023/06/21 02:20:40;;;;;;;23.25;10.70;;;;;;;;;;5006064;28;20031;-82
2023/06/21 02:23:07;;;;;;;17.25;8.95;;;;;;;;;;4990213;28;20099;-82
2023/06/21 02:25:35;;;;;;;15.63;8.02;;;;;;;;;;5007676;28;20030;-81
2023/06/21 02:28:02;;;;;;;20.73;7.82;;;;;;;;;;5008717;28;20038;-82
2023/06/21 02:30:29;;;;;;;12.70;7.40;;;;;;;;;;5010465;28;20046;-83
2023/06/21 02:32:56;;;;;;;15.77;7.40;;;;;;;;;;5009580;28;20497;-83
2023/06/21 02:35:22;;;;;;;18.50;9.30;;;;;;;;;;5009611;28;20030;-83
2023/06/21 02:37:48;;;;;;;20.30;6.50;;;;;;;;;;5004791;28;20068;-82
2023/06/21 02:40:14;;;;;;;22.55;6.95;;;;;;;;;;4999586;28;20133;-82
2023/06/21 02:42:43;;;;;;;12.40;6.53;;;;;;;;;;4997476;28;20042;-79
2023/06/21 02:45:10;;;;;;;15.23;6.60;;;;;;;;;;4995958;28;20041;-81
2023/06/21 02:47:36;;;;;;;12.27;7.13;;;;;;;;;;4981480;28;20034;-82
2023/06/21 02:50:02;;;;;;;16.55;6.93;;;;;;;;;;5000590;28;20509;-81
2023/06/21 02:52:30;;;;;;;14.55;7.32;;;;;;;;;;4996569;28;20035;-84
2023/06/21 02:54:57;;;;;;;24.00;9.02;;;;;;;;;;4994642;28;20096;-82
2023/06/21 02:57:23;;;;;;;22.95;9.65;;;;;;;;;;4996554;28;20057;-81
2023/06/21 02:59:49;;;;;;;26.00;11.05;;;;;;;;;;4981221;28;20042;-83
2023/06/21 03:02:17;;;;;;;21.45;10.05;;;;;;;;;;4997139;28;20476;-82
2023/06/21 03:04:44;;;;;;;19.70;11.52;;;;;;;;;;5001652;28;20042;-80
2023/06/21 03:07:11;;;;;;;14.77;9.35;;;;;;;;;;4983345;28;20057;-81
2023/06/21 03:09:37;;;;;;;20.90;11.43;;;;;;;;;;4997934;28;20064;-82
2023/06/21 03:12:08;;;;;;;27.02;14.95;;;;;;;;;;5001218;28;20038;-81
2023/06/21 03:14:41;;;;;;;19.17;13.35;;;;;;;;;;5001791;28;20038;-82
2023/06/21 03:17:09;;;;;;;30.38;13.60;;;;;;;;;;4998583;28;20050;-82
2023/06/21 03:19:36;;;;;;;26.08;14.98;;;;;;;;;;4984134;28;20042;-82
2023/06/21 03:22:02;;;;;;;22.73;14.43;;;;;;;;;;4999733;28;20038;-81
2023/06/21 03:24:32;;;;;;;18.92;13.45;;;;;;;;;;5005323;28;20064;-83
2023/06/21 03:27:00;;;;;;;26.85;16.13;;;;;;;;;;5002547;28;20049;-82
2023/06/21 03:29:26;;;;;;;19.70;13.63;;;;;;;;;;5004713;28;20038;-82
2023/06/21 03:31:52;;;;;;;23.83;14.80;;;;;;;;;;5009007;28;20045;-83
2023/06/21 03:34:20;;;;;;;20.55;16.08;;;;;;;;;;5009559;28;20081;-81
2023/06/21 03:36:46;;;;;;;27.13;16.52;;;;;;;;;;4985724;28;20421;-81
2023/06/21 03:39:12;;;;;;;32.50;15.65;;;;;;;;;;4997263;28;20637;-81
2023/06/21 03:41:38;;;;;;;32.60;17.10;;;;;;;;;;4997230;28;20410;-80
2023/06/21 03:44:04;;;;;;;22.90;15.18;;;;;;;;;;4999073;28;20044;-83
2023/06/21 03:46:30;;;;;;;24.30;14.90;;;;;;;;;;4985744;28;20034;-83
2023/06/21 03:48:58;;;;;;;20.25;14.07;;;;;;;;;;5005679;28;20049;-83
2023/06/21 03:51:25;;;;;;;25.38;16.27;;;;;;;;;;5005266;28;20034;-83
2023/06/21 03:53:53;;;;;;;21.90;13.25;;;;;;;;;;5013320;28;20081;-83
2023/06/21 03:56:19;;;;;;;17.75;11.60;;;;;;;;;;5017506;28;20042;-83
2023/06/21 03:58:45;;;;;;;21.13;10.75;;;;;;;;;;5015277;28;20029;-83
2023/06/21 04:01:11;;;;;;;11.18;9.23;;;;;;;;;;4996102;28;20034;-85
2023/06/21 04:03:37;;;;;;;15.02;9.02;;;;;;;;;;4996760;28;20022;-85
2023/06/21 04:06:04;;;;;;;13.27;9.02;;;;;;;;;;5013942;28;20074;-83
2023/06/21 04:08:31;;;;;;;16.52;10.13;;;;;;;;;;5013461;28;20034;-84
2023/06/21 04:10:58;;;;;;;9.82;8.82;;;;;;;;;;5014418;28;20074;-83
2023/06/21 04:13:25;;;;;;;9.43;7.57;;;;;;;;;;5014502;28;20072;-82
2023/06/21 04:15:52;;;;;;;6.95;6.22;;;;;;;;;;5013569;28;20054;-82
2023/06/21 04:18:19;;;;;;;9.20;6.28;;;;;;;;;;4995703;28;20050;-82
2023/06/21 04:20:46;;;;;;;11.10;7.10;;;;;;;;;;5009618;28;20031;-82
2023/06/21 04:23:12;;;;;;;7.38;6.68;;;;;;;;;;5015726;28;20046;-86
2023/06/21 04:25:38;;;;;;;5.63;4.25;;;;;;;;;;5012975;28;20033;-85
2023/06/21 04:28:04;;;;;;;2.78;2.58;;;;;;;;;;5014889;28;20022;-82
2023/06/21 04:30:34;;;;;;;3.67;2.75;;;;;;;;;;5016057;28;20057;-84
2023/06/21 04:33:00;;;;;;;3.63;3.33;;;;;;;;;;4999003;28;20022;-85
2023/06/21 04:35:26;;;;;;;3.88;3.53;;;;;;;;;;5014054;28;20054;-84
2023/06/21 04:37:52;;;;;;;5.07;3.90;;;;;;;;;;5016109;28;20061;-84
2023/06/21 04:40:18;;;;;;;11.55;4.70;;;;;;;;;;5014903;28;20034;-84
2023/06/21 04:42:46;;;;;;;12.38;4.95;;;;;;;;;;5014359;28;20046;-84
2023/06/21 04:45:15;;;;;;;10.52;4.93;;;;;;;;;;5014740;28;20037;-86
2023/06/21 04:47:42;;;;;;;7.57;5.00;;;;;;;;;;5015723;28;20107;-84
2023/06/21 04:50:09;;;;;;;8.70;4.97;;;;;;;;;;5015965;28;20019;-85
2023/06/21 04:52:37;;;;;;;6.75;4.47;;;;;;;;;;5016608;28;20069;-85
2023/06/21 04:55:05;;;;;;;5.40;4.90;;;;;;;;;;5016027;28;20041;-84
2023/06/21 04:57:31;;;;;;;5.95;5.07;;;;;;;;;;5016087;28;20053;-82
2023/06/21 04:59:57;;;;;;;13.07;5.30;;;;;;;;;;5000134;28;20615;-85
2023/06/21 05:02:24;;;;;;;10.43;4.82;;;;;;;;;;5015984;28;20057;-82
2023/06/21 05:04:50;;;;;;;4.13;3.63;;;;;;;;;;5014174;28;20045;-85
2023/06/21 05:07:16;;;;;;;3.65;3.30;;;;;;;;;;5014729;28;20066;-84
2023/06/21 05:09:42;;;;;;;7.25;3.22;;;;;;;;;;5012218;28;20049;-84
2023/06/21 05:12:09;;;;;;;17.60;3.35;;;;;;;;;;5013383;28;20042;-84
2023/06/21 05:14:35;;;;;;;3.50;2.85;;;;;;;;;;5012831;28;20058;-83
2023/06/21 05:17:01;;;;;;;2.95;2.75;;;;;;;;;;5014325;28;20093;-84
2023/06/21 05:19:27;;;;;;;3.72;2.45;;;;;;;;;;5013969;28;20038;-84
2023/06/21 05:21:53;;;;;;;5.28;2.63;;;;;;;;;;5013805;28;20039;-85
2023/06/21 05:24:19;;;;;;;8.90;3.95;;;;;;;;;;5013481;28;20066;-84
2023/06/21 05:26:45;;;;;;;3.45;3.00;;;;;;;;;;5014032;28;20034;-83
2023/06/21 05:29:12;;;;;;;2.55;2.35;;;;;;;;;;5009108;28;20070;-84
2023/06/21 05:31:38;;;;;;;2.70;2.60;;;;;;;;;;5004980;28;20023;-84
2023/06/21 05:34:04;;;;;;;3.65;2.60;;;;;;;;;;5012556;28;20119;-82
2023/06/21 05:36:30;;;;;;;5.65;2.58;;;;;;;;;;5014160;28;20098;-86
2023/06/21 05:38:56;;;;;;;5.55;2.50;;;;;;;;;;5014777;28;20061;-86
2023/06/21 05:41:22;;;;;;;3.35;2.33;;;;;;;;;;5016132;28;20023;-87
2023/06/21 05:43:48;;;;;;;3.50;2.63;;;;;;;;;;5016722;28;20089;-84
2023/06/21 05:46:14;;;;;;;3.55;3.00;;;;;;;;;;5071504;23;20039;-87
2023/06/21 05:48:41;;;;;;;2.50;2.30;;;;;;;;;;5004306;28;20022;-85
2023/06/21 05:51:07;;;;;;;6.18;2.47;;;;;;;;;;5019889;28;20046;-84
2023/06/21 05:53:32;;;;;;;2.97;2.67;;;;;;;;;;5017086;28;20061;-86
2023/06/21 05:55:59;;;;;;;2.92;2.60;;;;;;;;;;5068945;23;20058;-85
2023/06/21 05:58:25;;;;;;;3.92;3.13;;;;;;;;;;5016476;28;20069;-84
2023/06/21 06:00:51;;;;;;;3.38;3.08;;;;;;;;;;5018838;28;20034;-85
2023/06/21 06:03:18;;;;;;;3.17;2.75;;;;;;;;;;5019726;28;20049;-85
2023/06/21 06:05:44;;;;;;;3.00;2.65;;;;;;;;;;5018914;28;20034;-84
2023/06/21 06:08:10;;;;;;;5.28;2.90;;;;;;;;;;5018129;28;20085;-85
2023/06/21 06:10:36;;;;;;;3.20;2.67;;;;;;;;;;5018398;28;20046;-87
2023/06/21 06:13:02;;;;;;;6.95;3.20;;;;;;;;;;4984187;28;20037;-84
2023/06/21 06:15:29;;;;;;;3.70;3.03;;;;;;;;;;5014438;28;20030;-85
2023/06/21 06:17:55;;;;;;;3.20;2.90;;;;;;;;;;4997540;28;20090;-85
2023/06/21 06:20:21;;;;;;;4.05;3.13;;;;;;;;;;5017518;28;20042;-86
2023/06/21 06:22:47;;;;;;;3.55;3.22;;;;;;;;;;5162296;23;20058;-86
2023/06/21 06:25:13;;;;;;;6.25;3.55;;;;;;;;;;5019382;28;20029;-86
2023/06/21 06:27:39;;;;;;;13.43;4.10;;;;;;;;;;5002571;28;20046;-86
2023/06/21 06:30:06;;;;;;;5.32;3.08;;;;;;;;;;5002792;28;20144;-85
2023/06/21 06:32:34;;;;;;;2.75;2.55;;;;;;;;;;5079559;23;20047;-86
2023/06/21 06:35:00;;;;;;;4.10;3.20;;;;;;;;;;5000876;28;20026;-86
2023/06/21 06:37:26;;;;;;;5.50;2.72;;;;;;;;;;5251804;23;20054;-85
2023/06/21 06:39:54;;;;;;;3.10;2.90;;;;;;;;;;5140683;23;20038;31
2023/06/21 06:42:20;;;;;;;2.90;2.70;;;;;;;;;;4984984;28;20031;-86
2023/06/21 06:44:46;;;;;;;3.90;2.97;;;;;;;;;;5077038;23;20106;-85
2023/06/21 06:47:13;;;;;;;4.97;2.65;;;;;;;;;;5018554;28;20039;-89
2023/06/21 06:49:39;;;;;;;2.65;2.45;;;;;;;;;;4981534;28;20074;-89
2023/06/21 06:52:06;;;;;;;3.45;2.67;;;;;;;;;;5014577;28;20078;-87
2023/06/21 06:54:32;;;;;;;4.85;2.90;;;;;;;;;;5018672;28;20038;-87
2023/06/21 06:56:58;;;;;;;8.15;2.92;;;;;;;;;;5295679;23;20175;-88
2023/06/21 06:59:25;;;;;;;4.03;2.80;;;;;;;;;;5242250;23;20046;-85
2023/06/21 07:01:51;;;;;;;3.35;2.70;;;;;;;;;;5017494;28;20015;-87
2023/06/21 07:04:17;;;;;;;5.03;2.88;;;;;;;;;;5018597;28;20018;-87
2023/06/21 07:06:43;;;;;;;5.28;2.72;;;;;;;;;;5017192;28;20026;-87
2023/06/21 07:09:09;;;;;;;6.28;3.22;;;;;;;;;;5017339;28;20126;-87
2023/06/21 07:11:35;;;;;;;2.75;2.60;;;;;;;;;;5017134;28;20034;-88
2023/06/21 07:14:01;;;;;;;2.75;2.53;;;;;;;;;;4998297;28;20014;-88
2023/06/21 07:16:33;;;;;;;4.28;2.40;;;;;;;;;;5018181;28;20082;-84
2023/06/21 07:18:59;;;;;;;2.45;2.30;;;;;;;;;;5015396;28;20069;-86
2023/06/21 07:21:27;;;;;;;2.75;2.53;;;;;;;;;;5014471;28;20105;-84
2023/06/21 07:23:53;;;;;;;3.58;2.40;;;;;;;;;;5011822;28;20046;-86
2023/06/21 07:26:19;;;;;;;2.60;2.40;;;;;;;;;;5013663;28;20058;-86
2023/06/21 07:28:45;;;;;;;2.42;2.22;;;;;;;;;;5175174;23;20031;-87
2023/06/21 07:31:12;;;;;;;2.80;2.50;;;;;;;;;;5208254;23;20202;-85
2023/06/21 07:33:38;;;;;;;2.90;2.70;;;;;;;;;;5002379;28;20045;-87
2023/06/21 07:36:04;;;;;;;2.42;2.22;;;;;;;;;;5207783;23;20042;-83
2023/06/21 07:38:30;;;;;;;3.05;2.50;;;;;;;;;;5173962;23;20069;-86
2023/06/21 07:40:56;;;;;;;2.83;2.63;;;;;;;;;;5038510;28;20018;-87
2023/06/21 07:43:22;;;;;;;5.75;2.83;;;;;;;;;;5168755;23;20058;-87
2023/06/21 07:45:49;;;;;;;2.65;2.50;;;;;;;;;;5017853;28;20023;-84
2023/06/21 07:51:22;;;;;;;4.40;2.20;;;;;;;;;;5206898;23;20039;-87
2023/06/21 07:53:48;;;;;;;2.60;2.40;;;;;;;;;;5018750;28;20034;-87
2023/06/21 07:56:14;;;;;;;2.20;2.10;;;;;;;;;;5015576;28;20046;-85
2023/06/21 07:58:42;;;;;;;1.98;1.80;;;;;;;;;;5015765;28;20077;-86
2023/06/21 08:01:08;;;;;;;2.25;2.08;;;;;;;;;;5014865;28;20027;-85
2023/06/21 08:03:34;;;;;;;2.70;2.15;;;;;;;;;;4999664;28;20042;-86
2023/06/21 08:06:01;;;;;;;5.82;2.10;;;;;;;;;;5016725;28;20041;-86
2023/06/21 08:08:27;;;;;;;3.40;2.53;;;;;;;;;;5014690;28;20038;-84
2023/06/21 08:10:53;;;;;;;2.45;2.20;;;;;;;;;;5014566;28;20078;-86
2023/06/21 08:13:22;;;;;;;3.50;3.00;;;;;;;;;;5015667;28;20018;-86
2023/06/21 08:15:49;;;;;;;2.90;2.70;;;;;;;;;;5015604;28;20038;-84
2023/06/21 08:18:15;;;;;;;3.45;2.50;;;;;;;;;;5013157;28;20042;-85
2023/06/21 08:20:41;;;;;;;2.97;2.28;;;;;;;;;;5014739;28;20026;-86
2023/06/21 08:23:07;;;;;;;2.85;2.38;;;;;;;;;;5016700;28;20049;-87
2023/06/21 08:28:31;;;;;;;6.80;2.30;;;;;;;;;;5057468;23;20085;-84
2023/06/21 08:30:57;;;;;;;3.92;2.22;;;;;;;;;;5136743;23;20038;-87
2023/06/21 08:33:23;;;;;;;3.67;2.45;;;;;;;;;;5017684;28;20050;-88
2023/06/21 08:35:49;;;;;;;2.88;2.60;;;;;;;;;;5368968;23;20053;-86
2023/06/21 08:38:15;;;;;;;2.20;2.10;;;;;;;;;;5161092;23;20053;-85
2023/06/21 08:40:42;;;;;;;3.90;2.58;;;;;;;;;;5017796;28;20021;-87
2023/06/21 08:43:08;;;;;;;2.60;2.50;;;;;;;;;;5632389;23;20360;-79
2023/06/21 08:45:35;;;;;;;3.50;2.75;;;;;;;;;;4997098;28;20096;-86
2023/06/21 08:48:01;;;;;;;2.58;2.38;;;;;;;;;;5200993;23;20054;-88
2023/06/21 08:50:28;;;;;;;2.90;2.70;;;;;;;;;;5159984;23;20034;-85
2023/06/21 08:52:55;;;;;;;2.40;2.20;;;;;;;;;;5139309;23;20080;-87
2023/06/21 08:55:23;;;;;;;2.00;1.90;;;;;;;;;;5031861;28;20037;-86
2023/06/21 08:57:51;;;;;;;7.80;2.30;;;;;;;;;;5012450;28;20037;-86
2023/06/21 09:00:20;;;;;;;2.25;2.10;;;;;;;;;;5030374;28;20547;-87
2023/06/21 09:02:55;;;;;;;7.07;2.20;;;;;;;;;;5033226;28;20068;-86
2023/06/21 09:05:26;;;;;;;2.20;2.10;;;;;;;;;;5033424;28;20018;-86
2023/06/21 09:07:52;;;;;;;2.45;2.25;;;;;;;;;;5033047;28;20044;-86
2023/06/21 09:10:20;;;;;;;2.10;1.90;;;;;;;;;;5034486;28;20094;-86
2023/06/21 09:12:48;;;;;;;2.42;2.33;;;;;;;;;;5033247;28;20057;-84
2023/06/21 09:15:15;;;;;;;3.17;2.13;;;;;;;;;;5032044;28;20042;-86
2023/06/21 09:17:41;;;;;;;3.63;2.60;;;;;;;;;;5026336;28;20133;-85
2023/06/21 09:20:09;;;;;;;3.30;2.28;;;;;;;;;;5007148;28;20041;-85
2023/06/21 09:22:36;;;;;;;3.25;2.30;;;;;;;;;;5025440;28;20042;-85
2023/06/21 09:25:02;;;;;;;2.40;2.20;;;;;;;;;;5030507;28;20060;-87
2023/06/21 09:27:31;;;;;;;2.85;2.30;;;;;;;;;;5015365;28;20026;-85
2023/06/21 09:29:57;;;;;;;3.55;2.28;;;;;;;;;;5032797;28;20037;-84
2023/06/21 09:32:23;;;;;;;2.33;2.22;;;;;;;;;;5030463;28;20030;-85
2023/06/21 09:34:49;;;;;;;2.88;2.42;;;;;;;;;;5031598;28;20093;-85
2023/06/21 09:37:33;;;;;;;10.13;3.13;;;;;;;;;;5030046;28;20053;-84
2023/06/21 09:39:59;;;;;;;4.40;2.42;;;;;;;;;;5015761;28;20038;-84
2023/06/21 09:42:28;;;;;;;2.53;2.33;;;;;;;;;;5032309;28;20045;-83
2023/06/21 09:44:55;;;;;;;4.30;2.60;;;;;;;;;;5034567;28;20033;-85
2023/06/21 09:47:21;;;;;;;2.28;1.77;;;;;;;;;;5033324;28;20085;-84
2023/06/21 09:49:47;;;;;;;3.80;2.90;;;;;;;;;;5014429;28;20042;-84
2023/06/21 09:52:14;;;;;;;4.72;2.83;;;;;;;;;;5031106;28;20066;-85
2023/06/21 09:54:43;;;;;;;2.08;1.98;;;;;;;;;;5032065;28;20030;-85
2023/06/21 09:57:09;;;;;;;1.77;1.67;;;;;;;;;;5033056;28;20068;-84
2023/06/21 09:59:36;;;;;;;2.72;2.50;;;;;;;;;;5018708;28;20042;-85
2023/06/21 10:02:02;;;;;;;6.78;2.47;;;;;;;;;;5018906;28;20089;-85
2023/06/21 10:04:29;;;;;;;4.10;2.17;;;;;;;;;;5018321;28;20073;-85
2023/06/21 10:06:55;;;;;;;2.17;2.08;;;;;;;;;;5036559;28;20033;-85
2023/06/21 10:09:21;;;;;;;2.72;2.50;;;;;;;;;;5037022;28;20114;-84
2023/06/21 10:11:49;;;;;;;2.72;2.40;;;;;;;;;;5036592;28;20037;-84
2023/06/21 10:14:21;;;;;;;2.83;2.40;;;;;;;;;;5035726;28;20061;-84
2023/06/21 10:16:51;;;;;;;2.60;2.40;;;;;;;;;;5037257;28;20038;-85
2023/06/21 10:19:17;;;;;;;4.20;2.50;;;;;;;;;;5037188;28;20045;-87
2023/06/21 10:21:43;;;;;;;2.22;2.05;;;;;;;;;;5019278;28;20041;-86
2023/06/21 10:24:13;;;;;;;2.40;2.30;;;;;;;;;;5035013;28;20038;-86
2023/06/21 10:26:39;;;;;;;3.22;2.70;;;;;;;;;;5034163;28;20010;-86
2023/06/21 10:29:05;;;;;;;2.38;2.20;;;;;;;;;;5016378;28;20034;-86
2023/06/21 10:31:31;;;;;;;2.63;2.42;;;;;;;;;;5034423;28;20022;-87
2023/06/21 10:33:57;;;;;;;2.72;2.25;;;;;;;;;;5017313;28;20109;-86
2023/06/21 10:36:28;;;;;;;2.78;2.15;;;;;;;;;;5000845;28;20038;-85
2023/06/21 10:38:54;;;;;;;3.03;2.38;;;;;;;;;;5001490;28;20100;-85
2023/06/21 10:41:20;;;;;;;4.22;2.22;;;;;;;;;;5035106;28;20034;-86
2023/06/21 10:43:46;;;;;;;2.83;2.63;;;;;;;;;;5035152;28;20038;-85
2023/06/21 10:46:12;;;;;;;5.30;2.70;;;;;;;;;;5035080;28;20069;-84
2023/06/21 10:48:38;;;;;;;4.47;2.40;;;;;;;;;;5037330;28;20098;-87
2023/06/21 10:51:05;;;;;;;3.42;2.10;;;;;;;;;;5020943;28;20022;-84
2023/06/21 10:53:31;;;;;;;2.42;2.30;;;;;;;;;;5037411;28;20076;-86
2023/06/21 10:55:58;;;;;;;2.63;2.42;;;;;;;;;;5037635;28;20030;-86
2023/06/21 10:58:24;;;;;;;2.42;2.22;;;;;;;;;;5019056;28;20053;-87
2023/06/21 11:00:50;;;;;;;2.85;2.17;;;;;;;;;;5036664;28;20069;-87
2023/06/21 11:03:23;;;;;;;3.25;2.17;;;;;;;;;;5034953;28;20025;-88
2023/06/21 11:05:52;;;;;;;2.88;2.25;;;;;;;;;;5035756;28;20038;-86
2023/06/21 11:08:17;;;;;;;2.50;2.40;;;;;;;;;;5021725;28;20089;-87
2023/06/21 11:10:46;;;;;;;3.15;2.20;;;;;;;;;;5037715;28;20010;-86
2023/06/21 11:13:17;;;;;;;2.83;2.60;;;;;;;;;;5054123;23;20030;31
2023/06/21 11:15:46;;;;;;;3.00;2.58;;;;;;;;;;4997976;28;20093;-87
2023/06/21 11:18:18;;;;;;;2.55;2.35;;;;;;;;;;4981966;28;20023;-85
2023/06/21 11:20:45;;;;;;;3.22;2.85;;;;;;;;;;4998521;28;20058;-83
2023/06/21 11:23:14;;;;;;;2.33;2.22;;;;;;;;;;4997231;28;20038;-86
2023/06/21 11:25:47;;;;;;;2.50;2.40;;;;;;;;;;4996652;28;20098;-86
2023/06/21 11:28:19;;;;;;;5.18;2.40;;;;;;;;;;4981421;28;20023;-87
2023/06/21 11:31:08;;;;;;;2.53;2.33;;;;;;;;;;4997924;28;20059;-84
2023/06/21 11:33:43;;;;;;;2.88;2.05;;;;;;;;;;4997467;28;20042;-86
2023/06/21 11:36:09;;;;;;;2.90;2.53;;;;;;;;;;4997591;28;20044;-85
2023/06/21 11:38:35;;;;;;;6.50;2.20;;;;;;;;;;4997672;28;20031;-88
2023/06/21 11:41:02;;;;;;;2.40;2.20;;;;;;;;;;4994190;28;20027;-87
2023/06/21 11:43:28;;;;;;;2.35;2.15;;;;;;;;;;4977737;28;20043;-87
2023/06/21 11:46:00;;;;;;;3.45;2.20;;;;;;;;;;4978033;28;20039;-87
2023/06/21 11:48:26;;;;;;;3.35;2.38;;;;;;;;;;4978383;28;20621;-85
2023/06/21 11:50:52;;;;;;;4.35;1.95;;;;;;;;;;4979506;28;20077;-85
2023/06/21 11:53:23;;;;;;;2.20;2.10;;;;;;;;;;4979073;28;20015;-86
2023/06/21 11:55:53;;;;;;;2.20;2.00;;;;;;;;;;4992986;28;20091;-86
2023/06/21 11:58:19;;;;;;;8.15;1.90;;;;;;;;;;4976905;29;20035;-86
2023/06/21 12:00:45;;;;;;;3.50;2.53;;;;;;;;;;4977021;29;20070;-85
2023/06/21 12:03:12;;;;;;;2.58;2.30;;;;;;;;;;4975981;28;20033;-87
2023/06/21 12:05:42;;;;;;;3.03;2.20;;;;;;;;;;4976083;29;20050;-88
2023/06/21 12:08:09;;;;;;;2.60;2.38;;;;;;;;;;4977512;28;20031;-87
2023/06/21 12:10:35;;;;;;;3.22;2.17;;;;;;;;;;4978786;28;20019;-85
2023/06/21 12:13:07;;;;;;;2.28;2.08;;;;;;;;;;4979346;28;20029;-86
2023/06/21 12:15:33;;;;;;;4.35;2.20;;;;;;;;;;4994429;28;20047;-85
2023/06/21 12:17:59;;;;;;;3.75;2.33;;;;;;;;;;5037658;23;20248;-84
2023/06/21 12:20:25;;;;;;;4.03;2.35;;;;;;;;;;5018041;28;20051;-84
2023/06/21 12:22:52;;;;;;;6.25;2.20;;;;;;;;;;5017796;28;20021;-86
2023/06/21 12:25:19;;;;;;;2.63;2.03;;;;;;;;;;5017790;28;20018;-86
2023/06/21 12:27:52;;;;;;;2.30;2.20;;;;;;;;;;5130286;23;20303;-83
2023/06/21 12:32:51;;;;;;;3.42;2.38;;;;;;;;;;4997232;28;20240;-85
2023/06/21 12:35:17;;;;;;;3.42;2.75;;;;;;;;;;4998640;28;20027;-85
2023/06/21 12:37:45;;;;;;;6.53;2.97;;;;;;;;;;4995801;28;20076;-85
2023/06/21 12:40:12;;;;;;;2.83;2.63;;;;;;;;;;4975230;28;20045;-85
2023/06/21 12:42:38;;;;;;;2.90;2.28;;;;;;;;;;4976763;28;20047;-85
2023/06/21 12:45:05;;;;;;;3.30;2.33;;;;;;;;;;4972359;28;20043;-86
2023/06/21 12:47:31;;;;;;;2.40;2.20;;;;;;;;;;4973738;29;20124;-85
2023/06/21 12:50:00;;;;;;;3.15;2.85;;;;;;;;;;4958088;29;20039;-86
2023/06/21 12:52:29;;;;;;;3.15;2.40;;;;;;;;;;4974476;28;20143;-85
2023/06/21 12:54:55;;;;;;;2.63;2.30;;;;;;;;;;4972274;29;20023;-85
2023/06/21 12:57:25;;;;;;;5.22;2.58;;;;;;;;;;4972469;28;20046;-85
2023/06/21 12:59:51;;;;;;;3.63;2.22;;;;;;;;;;4973714;29;20072;-87
2023/06/21 13:02:17;;;;;;;6.78;2.20;;;;;;;;;;4961014;28;20019;-85
2023/06/21 13:04:47;;;;;;;2.20;2.10;;;;;;;;;;4976441;29;20019;-86
2023/06/21 13:07:13;;;;;;;2.67;2.33;;;;;;;;;;4977752;28;20067;-86
2023/06/21 13:09:39;;;;;;;2.63;2.40;;;;;;;;;;4977253;28;20027;-86
2023/06/21 13:12:06;;;;;;;4.10;2.70;;;;;;;;;;4977769;28;20075;-85
2023/06/21 13:14:32;;;;;;;3.92;2.50;;;;;;;;;;5145751;23;20058;-86
2023/06/21 13:16:58;;;;;;;4.90;2.90;;;;;;;;;;4999357;28;20038;-86
2023/06/21 13:19:25;;;;;;;3.67;3.38;;;;;;;;;;5015964;28;20070;-86
2023/06/21 13:21:51;;;;;;;3.13;2.50;;;;;;;;;;5016699;28;20018;-85
2023/06/21 13:24:18;;;;;;;3.55;2.92;;;;;;;;;;5015329;28;20057;-85
2023/06/21 13:26:44;;;;;;;7.28;3.00;;;;;;;;;;5015839;28;20054;-85
2023/06/21 13:29:09;;;;;;;6.32;2.45;;;;;;;;;;5015988;28;20033;-85
2023/06/21 13:31:35;;;;;;;6.63;2.55;;;;;;;;;;5015913;28;20030;-85
2023/06/21 13:34:02;;;;;;;2.70;2.50;;;;;;;;;;5016312;28;20045;-86
2023/06/21 13:36:28;;;;;;;4.43;2.80;;;;;;;;;;5015782;28;20027;-86
2023/06/21 13:38:54;;;;;;;3.17;2.88;;;;;;;;;;5016069;28;20038;-84
2023/06/21 13:41:20;;;;;;;4.00;2.70;;;;;;;;;;5157282;23;20109;-85
2023/06/21 13:43:46;;;;;;;3.78;2.50;;;;;;;;;;5015357;28;20016;-85
2023/06/21 13:46:12;;;;;;;2.75;2.55;;;;;;;;;;5015116;28;20090;-84
2023/06/21 13:48:38;;;;;;;2.67;2.50;;;;;;;;;;5016117;28;20019;-85
2023/06/21 13:51:04;;;;;;;2.50;2.40;;;;;;;;;;5016266;28;20026;-85
2023/06/21 13:53:31;;;;;;;3.38;2.90;;;;;;;;;;5016591;28;20042;-85
2023/06/21 13:55:57;;;;;;;3.72;2.20;;;;;;;;;;5015628;28;20098;-83
2023/06/21 13:58:25;;;;;;;5.57;2.40;;;;;;;;;;5013006;28;20525;-82
2023/06/21 14:00:51;;;;;;;4.00;2.50;;;;;;;;;;5013422;28;20041;-83
2023/06/21 14:03:17;;;;;;;2.58;2.38;;;;;;;;;;5013250;28;20030;-83
2023/06/21 14:05:43;;;;;;;3.40;2.15;;;;;;;;;;5014968;28;20085;-83
2023/06/21 14:08:09;;;;;;;5.85;2.58;;;;;;;;;;5017477;28;20042;-83
2023/06/21 14:10:35;;;;;;;7.10;2.42;;;;;;;;;;5017990;28;20041;-82
2023/06/21 14:13:01;;;;;;;2.28;2.13;;;;;;;;;;5016826;28;20038;-84
2023/06/21 14:15:27;;;;;;;2.92;2.40;;;;;;;;;;5006543;28;20073;-84
2023/06/21 14:17:54;;;;;;;3.58;2.70;;;;;;;;;;5006699;28;20221;-82
2023/06/21 14:20:21;;;;;;;2.72;2.50;;;;;;;;;;5005036;28;20026;-83
2023/06/21 14:22:48;;;;;;;2.78;2.58;;;;;;;;;;5005312;28;20041;-84
2023/06/21 14:25:14;;;;;;;7.30;2.85;;;;;;;;;;5004590;28;20076;-84
2023/06/21 14:27:40;;;;;;;6.75;2.50;;;;;;;;;;5006029;28;20038;-85
2023/06/21 14:30:06;;;;;;;4.47;2.40;;;;;;;;;;5005916;28;20037;-80
2023/06/21 14:32:41;;;;;;;9.35;2.80;;;;;;;;;;5004136;28;20046;-84
2023/06/21 14:35:07;;;;;;;6.05;2.55;;;;;;;;;;5005555;28;20029;-83
2023/06/21 14:37:34;;;;;;;2.60;2.30;;;;;;;;;;5003675;28;20080;-84
2023/06/21 14:40:03;;;;;;;4.00;2.40;;;;;;;;;;5005957;28;20497;-84
2023/06/21 14:42:34;;;;;;;3.03;2.75;;;;;;;;;;4992585;28;20116;-83
2023/06/21 14:45:00;;;;;;;2.88;2.30;;;;;;;;;;5009799;28;20041;-84
2023/06/21 14:47:26;;;;;;;2.33;2.22;;;;;;;;;;5011931;28;20026;-83